sensor_id;sensor_type;location;lat;lon;timestamp;P1;durP1;ratioP1;P2;durP2;ratioP2
9176;SDS011;4623;54.310;10.112;2023-02-02T00:01:17;9.57;;;3.30;;
9176;SDS011;4623;54.310;10.112;2023-02-02T00:03:44;11.53;;;4.00;;
9176;SDS011;4623;54.310;10.112;2023-02-02T00:06:10;10.37;;;4.17;;
9176;SDS011;4623;54.310;10.112;2023-02-02T00:08:36;10.93;;;3.67;;
9176;SDS011;4623;54.310;10.112;2023-02-02T00:11:03;14.40;;;4.17;;
9176;SDS011;4623;54.310;10.112;2023-02-02T00:13:29;9.67;;;3.97;;
9176;SDS011;4623;54.310;10.112;2023-02-02T00:15:56;9.53;;;3.70;;
9176;SDS011;4623;54.310;10.112;2023-02-02T00:18:21;11.10;;;3.97;;
9176;SDS011;4623;54.310;10.112;2023-02-02T00:20:47;10.53;;;3.50;;
9176;SDS011;4623;54.310;10.112;2023-02-02T00:23:14;14.37;;;3.77;;
9176;SDS011;4623;54.310;10.112;2023-02-02T00:25:41;13.33;;;3.93;;
9176;SDS011;4623;54.310;10.112;2023-02-02T00:28:07;13.90;;;4.03;;
9176;SDS011;4623;54.310;10.112;2023-02-02T00:30:32;13.30;;;4.50;;
9176;SDS011;4623;54.310;10.112;2023-02-02T00:32:58;10.27;;;3.50;;
9176;SDS011;4623;54.310;10.112;2023-02-02T00:35:23;17.37;;;5.67;;
9176;SDS011;4623;54.310;10.112;2023-02-02T00:37:49;7.50;;;3.67;;
9176;SDS011;4623;54.310;10.112;2023-02-02T00:40:14;10.90;;;3.93;;
9176;SDS011;4623;54.310;10.112;2023-02-02T00:42:40;11.10;;;4.03;;
9176;SDS011;4623;54.310;10.112;2023-02-02T00:45:08;10.33;;;4.50;;
9176;SDS011;4623;54.310;10.112;2023-02-02T00:47:41;14.43;;;3.63;;
9176;SDS011;4623;54.310;10.112;2023-02-02T00:50:09;10.43;;;4.47;;
9176;SDS011;4623;54.310;10.112;2023-02-02T00:52:36;10.27;;;3.90;;
9176;SDS011;4623;54.310;10.112;2023-02-02T00:55:01;15.13;;;3.30;;
9176;SDS011;4623;54.310;10.112;2023-02-02T00:57:27;12.60;;;4.10;;
9176;SDS011;4623;54.310;10.112;2023-02-02T00:59:52;16.10;;;3.70;;
9176;SDS011;4623;54.310;10.112;2023-02-02T01:02:18;11.30;;;4.07;;
9176;SDS011;4623;54.310;10.112;2023-02-02T01:04:43;11.40;;;3.97;;
9176;SDS011;4623;54.310;10.112;2023-02-02T01:07:09;15.80;;;4.70;;
9176;SDS011;4623;54.310;10.112;2023-02-02T01:09:34;11.50;;;3.30;;
9176;SDS011;4623;54.310;10.112;2023-02-02T01:12:00;11.93;;;4.00;;
9176;SDS011;4623;54.310;10.112;2023-02-02T01:14:25;9.77;;;4.03;;
9176;SDS011;4623;54.310;10.112;2023-02-02T01:16:51;10.57;;;3.67;;
9176;SDS011;4623;54.310;10.112;2023-02-02T01:19:17;15.13;;;4.00;;
9176;SDS011;4623;54.310;10.112;2023-02-02T01:21:42;11.90;;;4.27;;
9176;SDS011;4623;54.310;10.112;2023-02-02T01:24:08;8.03;;;3.30;;
9176;SDS011;4623;54.310;10.112;2023-02-02T01:26:33;10.67;;;3.87;;
9176;SDS011;4623;54.310;10.112;2023-02-02T01:28:59;8.00;;;3.90;;
9176;SDS011;4623;54.310;10.112;2023-02-02T01:31:24;12.77;;;3.50;;
9176;SDS011;4623;54.310;10.112;2023-02-02T01:33:50;7.97;;;3.37;;
9176;SDS011;4623;54.310;10.112;2023-02-02T01:36:17;10.33;;;3.57;;
9176;SDS011;4623;54.310;10.112;2023-02-02T01:38:46;9.27;;;4.30;;
9176;SDS011;4623;54.310;10.112;2023-02-02T01:41:13;8.53;;;4.00;;
9176;SDS011;4623;54.310;10.112;2023-02-02T01:46:12;10.70;;;3.83;;
9176;SDS011;4623;54.310;10.112;2023-02-02T01:48:40;12.33;;;3.53;;
9176;SDS011;4623;54.310;10.112;2023-02-02T01:51:08;11.60;;;3.93;;
9176;SDS011;4623;54.310;10.112;2023-02-02T01:53:38;11.50;;;3.80;;
9176;SDS011;4623;54.310;10.112;2023-02-02T01:56:05;9.77;;;3.70;;
9176;SDS011;4623;54.310;10.112;2023-02-02T01:58:33;10.93;;;3.77;;
9176;SDS011;4623;54.310;10.112;2023-02-02T02:01:01;9.97;;;3.43;;
9176;SDS011;4623;54.310;10.112;2023-02-02T02:03:28;10.13;;;3.97;;
9176;SDS011;4623;54.310;10.112;2023-02-02T02:06:07;12.93;;;3.50;;
9176;SDS011;4623;54.310;10.112;2023-02-02T02:08:39;23.60;;;5.20;;
9176;SDS011;4623;54.310;10.112;2023-02-02T02:11:11;19.27;;;4.90;;
9176;SDS011;4623;54.310;10.112;2023-02-02T02:13:37;10.27;;;3.43;;
9176;SDS011;4623;54.310;10.112;2023-02-02T02:39:38;13.83;;;4.33;;
9176;SDS011;4623;54.310;10.112;2023-02-02T02:42:08;13.60;;;4.60;;
9176;SDS011;4623;54.310;10.112;2023-02-02T02:44:40;16.00;;;5.00;;
9176;SDS011;4623;54.310;10.112;2023-02-02T02:47:06;17.67;;;4.57;;
9176;SDS011;4623;54.310;10.112;2023-02-02T02:49:32;13.00;;;3.67;;
9176;SDS011;4623;54.310;10.112;2023-02-02T02:52:06;11.17;;;4.13;;
9176;SDS011;4623;54.310;10.112;2023-02-02T02:54:33;11.30;;;3.87;;
9176;SDS011;4623;54.310;10.112;2023-02-02T03:02:45;11.90;;;4.50;;
9176;SDS011;4623;54.310;10.112;2023-02-02T03:05:32;16.33;;;4.83;;
9176;SDS011;4623;54.310;10.112;2023-02-02T03:08:04;10.60;;;4.43;;
9176;SDS011;4623;54.310;10.112;2023-02-02T03:10:35;12.10;;;4.53;;
9176;SDS011;4623;54.310;10.112;2023-02-02T03:13:07;19.03;;;4.30;;
9176;SDS011;4623;54.310;10.112;2023-02-02T03:15:35;13.53;;;3.90;;
9176;SDS011;4623;54.310;10.112;2023-02-02T03:18:04;8.87;;;3.20;;
9176;SDS011;4623;54.310;10.112;2023-02-02T03:20:29;9.33;;;4.07;;
9176;SDS011;4623;54.310;10.112;2023-02-02T03:22:55;16.37;;;4.27;;
9176;SDS011;4623;54.310;10.112;2023-02-02T03:25:20;10.47;;;3.90;;
9176;SDS011;4623;54.310;10.112;2023-02-02T03:27:47;12.37;;;4.70;;
9176;SDS011;4623;54.310;10.112;2023-02-02T03:30:13;17.33;;;4.13;;
9176;SDS011;4623;54.310;10.112;2023-02-02T03:32:39;9.27;;;3.57;;
9176;SDS011;4623;54.310;10.112;2023-02-02T03:35:05;11.40;;;4.03;;
9176;SDS011;4623;54.310;10.112;2023-02-02T03:37:31;10.60;;;3.70;;
9176;SDS011;4623;54.310;10.112;2023-02-02T03:39:57;10.40;;;3.83;;
9176;SDS011;4623;54.310;10.112;2023-02-02T03:42:22;12.83;;;4.23;;
9176;SDS011;4623;54.310;10.112;2023-02-02T03:44:48;14.40;;;4.17;;
9176;SDS011;4623;54.310;10.112;2023-02-02T03:47:13;9.23;;;3.80;;
9176;SDS011;4623;54.310;10.112;2023-02-02T03:49:39;14.27;;;3.93;;
9176;SDS011;4623;54.310;10.112;2023-02-02T03:52:04;14.10;;;5.40;;
9176;SDS011;4623;54.310;10.112;2023-02-02T03:54:30;8.07;;;3.80;;
9176;SDS011;4623;54.310;10.112;2023-02-02T03:56:55;11.10;;;4.20;;
9176;SDS011;4623;54.310;10.112;2023-02-02T03:59:21;12.33;;;4.10;;
9176;SDS011;4623;54.310;10.112;2023-02-02T04:01:47;15.40;;;4.93;;
9176;SDS011;4623;54.310;10.112;2023-02-02T04:04:13;12.57;;;4.57;;
9176;SDS011;4623;54.310;10.112;2023-02-02T04:06:38;21.07;;;5.07;;
9176;SDS011;4623;54.310;10.112;2023-02-02T04:09:04;11.67;;;4.20;;
9176;SDS011;4623;54.310;10.112;2023-02-02T04:11:29;14.37;;;4.47;;
9176;SDS011;4623;54.310;10.112;2023-02-02T04:13:55;13.03;;;4.37;;
9176;SDS011;4623;54.310;10.112;2023-02-02T04:16:20;20.37;;;5.03;;
9176;SDS011;4623;54.310;10.112;2023-02-02T04:18:46;10.97;;;4.40;;
9176;SDS011;4623;54.310;10.112;2023-02-02T04:21:12;10.23;;;3.97;;
9176;SDS011;4623;54.310;10.112;2023-02-02T04:23:37;16.10;;;5.20;;
9176;SDS011;4623;54.310;10.112;2023-02-02T04:26:03;10.87;;;4.03;;
9176;SDS011;4623;54.310;10.112;2023-02-02T04:28:29;19.07;;;5.20;;
9176;SDS011;4623;54.310;10.112;2023-02-02T04:30:55;11.37;;;4.40;;
9176;SDS011;4623;54.310;10.112;2023-02-02T04:33:21;11.67;;;4.07;;
9176;SDS011;4623;54.310;10.112;2023-02-02T04:35:48;12.10;;;4.27;;
9176;SDS011;4623;54.310;10.112;2023-02-02T04:38:14;12.17;;;4.23;;
9176;SDS011;4623;54.310;10.112;2023-02-02T04:40:40;11.67;;;4.27;;
9176;SDS011;4623;54.310;10.112;2023-02-02T04:43:07;14.10;;;4.60;;
9176;SDS011;4623;54.310;10.112;2023-02-02T04:45:33;19.90;;;5.43;;
9176;SDS011;4623;54.310;10.112;2023-02-02T04:47:59;13.57;;;4.50;;
9176;SDS011;4623;54.310;10.112;2023-02-02T04:50:25;13.33;;;4.30;;
9176;SDS011;4623;54.310;10.112;2023-02-02T04:52:51;9.43;;;4.60;;
9176;SDS011;4623;54.310;10.112;2023-02-02T04:55:16;6.13;;;3.50;;
9176;SDS011;4623;54.310;10.112;2023-02-02T04:57:42;13.80;;;3.90;;
9176;SDS011;4623;54.310;10.112;2023-02-02T05:00:08;14.50;;;3.90;;
9176;SDS011;4623;54.310;10.112;2023-02-02T05:02:35;8.73;;;3.17;;
9176;SDS011;4623;54.310;10.112;2023-02-02T05:05:01;8.50;;;3.23;;
9176;SDS011;4623;54.310;10.112;2023-02-02T05:07:27;8.90;;;3.43;;
9176;SDS011;4623;54.310;10.112;2023-02-02T05:09:53;9.60;;;3.20;;
9176;SDS011;4623;54.310;10.112;2023-02-02T05:12:19;5.33;;;2.83;;
9176;SDS011;4623;54.310;10.112;2023-02-02T05:14:44;8.13;;;3.57;;
9176;SDS011;4623;54.310;10.112;2023-02-02T05:17:10;9.47;;;3.30;;
9176;SDS011;4623;54.310;10.112;2023-02-02T05:19:35;8.93;;;2.70;;
9176;SDS011;4623;54.310;10.112;2023-02-02T05:22:01;5.40;;;2.73;;
9176;SDS011;4623;54.310;10.112;2023-02-02T05:24:26;11.67;;;2.27;;
9176;SDS011;4623;54.310;10.112;2023-02-02T05:26:52;11.10;;;3.20;;
9176;SDS011;4623;54.310;10.112;2023-02-02T05:29:22;6.40;;;2.80;;
9176;SDS011;4623;54.310;10.112;2023-02-02T05:31:48;11.10;;;3.47;;
9176;SDS011;4623;54.310;10.112;2023-02-02T05:34:13;13.90;;;3.20;;
9176;SDS011;4623;54.310;10.112;2023-02-02T05:36:39;9.23;;;3.63;;
9176;SDS011;4623;54.310;10.112;2023-02-02T05:39:04;11.77;;;2.90;;
9176;SDS011;4623;54.310;10.112;2023-02-02T05:41:30;13.73;;;3.53;;
9176;SDS011;4623;54.310;10.112;2023-02-02T05:43:57;9.27;;;3.77;;
9176;SDS011;4623;54.310;10.112;2023-02-02T05:46:23;9.90;;;3.03;;
9176;SDS011;4623;54.310;10.112;2023-02-02T05:48:49;11.77;;;3.63;;
9176;SDS011;4623;54.310;10.112;2023-02-02T05:51:15;7.33;;;2.80;;
9176;SDS011;4623;54.310;10.112;2023-02-02T05:53:45;11.07;;;3.70;;
9176;SDS011;4623;54.310;10.112;2023-02-02T05:56:11;9.47;;;3.63;;
9176;SDS011;4623;54.310;10.112;2023-02-02T05:58:37;7.87;;;3.37;;
9176;SDS011;4623;54.310;10.112;2023-02-02T06:01:02;8.90;;;3.30;;
9176;SDS011;4623;54.310;10.112;2023-02-02T06:03:28;9.00;;;3.70;;
9176;SDS011;4623;54.310;10.112;2023-02-02T06:05:54;9.00;;;3.17;;
9176;SDS011;4623;54.310;10.112;2023-02-02T06:08:19;10.27;;;3.80;;
9176;SDS011;4623;54.310;10.112;2023-02-02T06:10:45;15.00;;;3.63;;
9176;SDS011;4623;54.310;10.112;2023-02-02T06:13:10;10.80;;;3.83;;
9176;SDS011;4623;54.310;10.112;2023-02-02T06:15:36;6.60;;;3.50;;
9176;SDS011;4623;54.310;10.112;2023-02-02T06:18:02;6.07;;;2.70;;
9176;SDS011;4623;54.310;10.112;2023-02-02T06:20:30;6.07;;;3.40;;
9176;SDS011;4623;54.310;10.112;2023-02-02T06:22:55;12.83;;;4.03;;
9176;SDS011;4623;54.310;10.112;2023-02-02T06:25:21;10.00;;;3.30;;
9176;SDS011;4623;54.310;10.112;2023-02-02T06:27:46;11.97;;;4.07;;
9176;SDS011;4623;54.310;10.112;2023-02-02T06:30:13;9.30;;;4.07;;
9176;SDS011;4623;54.310;10.112;2023-02-02T06:32:39;9.53;;;3.60;;
9176;SDS011;4623;54.310;10.112;2023-02-02T06:35:05;13.23;;;4.33;;
9176;SDS011;4623;54.310;10.112;2023-02-02T06:37:31;8.90;;;3.83;;
9176;SDS011;4623;54.310;10.112;2023-02-02T06:39:58;9.17;;;3.67;;
9176;SDS011;4623;54.310;10.112;2023-02-02T06:42:24;8.27;;;3.20;;
9176;SDS011;4623;54.310;10.112;2023-02-02T06:44:49;6.23;;;3.30;;
9176;SDS011;4623;54.310;10.112;2023-02-02T06:47:15;5.33;;;3.07;;
9176;SDS011;4623;54.310;10.112;2023-02-02T06:49:40;8.97;;;3.10;;
9176;SDS011;4623;54.310;10.112;2023-02-02T06:52:06;12.33;;;3.83;;
9176;SDS011;4623;54.310;10.112;2023-02-02T06:54:32;11.57;;;4.00;;
9176;SDS011;4623;54.310;10.112;2023-02-02T06:56:57;9.07;;;3.30;;
9176;SDS011;4623;54.310;10.112;2023-02-02T06:59:23;7.07;;;2.83;;
9176;SDS011;4623;54.310;10.112;2023-02-02T07:01:48;11.10;;;3.63;;
9176;SDS011;4623;54.310;10.112;2023-02-02T07:04:17;8.27;;;3.80;;
9176;SDS011;4623;54.310;10.112;2023-02-02T07:06:43;11.10;;;3.80;;
9176;SDS011;4623;54.310;10.112;2023-02-02T07:09:09;8.27;;;3.50;;
9176;SDS011;4623;54.310;10.112;2023-02-02T07:11:35;6.50;;;4.00;;
9176;SDS011;4623;54.310;10.112;2023-02-02T07:14:00;5.53;;;3.37;;
9176;SDS011;4623;54.310;10.112;2023-02-02T07:16:27;8.67;;;3.47;;
9176;SDS011;4623;54.310;10.112;2023-02-02T07:18:53;9.20;;;3.30;;
9176;SDS011;4623;54.310;10.112;2023-02-02T07:21:21;7.83;;;3.50;;
9176;SDS011;4623;54.310;10.112;2023-02-02T07:23:49;9.37;;;3.10;;
9176;SDS011;4623;54.310;10.112;2023-02-02T07:26:15;9.50;;;3.43;;
9176;SDS011;4623;54.310;10.112;2023-02-02T07:28:42;8.80;;;4.03;;
9176;SDS011;4623;54.310;10.112;2023-02-02T07:31:15;7.27;;;3.40;;
9176;SDS011;4623;54.310;10.112;2023-02-02T07:33:43;11.97;;;4.30;;
9176;SDS011;4623;54.310;10.112;2023-02-02T07:36:10;11.67;;;4.20;;
9176;SDS011;4623;54.310;10.112;2023-02-02T07:38:36;17.87;;;5.03;;
9176;SDS011;4623;54.310;10.112;2023-02-02T07:41:02;12.53;;;3.80;;
9176;SDS011;4623;54.310;10.112;2023-02-02T07:43:28;8.23;;;3.30;;
9176;SDS011;4623;54.310;10.112;2023-02-02T07:45:57;8.10;;;3.73;;
9176;SDS011;4623;54.310;10.112;2023-02-02T07:48:26;9.27;;;3.83;;
9176;SDS011;4623;54.310;10.112;2023-02-02T07:50:51;8.03;;;3.77;;
9176;SDS011;4623;54.310;10.112;2023-02-02T07:53:17;10.03;;;3.53;;
9176;SDS011;4623;54.310;10.112;2023-02-02T07:55:42;10.53;;;4.23;;
9176;SDS011;4623;54.310;10.112;2023-02-02T07:58:08;9.10;;;3.70;;
9176;SDS011;4623;54.310;10.112;2023-02-02T08:00:34;10.43;;;4.07;;
9176;SDS011;4623;54.310;10.112;2023-02-02T08:03:00;7.20;;;3.23;;
9176;SDS011;4623;54.310;10.112;2023-02-02T08:05:26;10.47;;;3.90;;
9176;SDS011;4623;54.310;10.112;2023-02-02T08:07:52;9.53;;;4.00;;
9176;SDS011;4623;54.310;10.112;2023-02-02T08:10:17;5.97;;;3.40;;
9176;SDS011;4623;54.310;10.112;2023-02-02T08:12:43;14.43;;;4.20;;
9176;SDS011;4623;54.310;10.112;2023-02-02T08:15:08;9.47;;;3.03;;
9176;SDS011;4623;54.310;10.112;2023-02-02T08:17:36;8.47;;;3.17;;
9176;SDS011;4623;54.310;10.112;2023-02-02T08:20:01;12.07;;;3.20;;
9176;SDS011;4623;54.310;10.112;2023-02-02T08:22:27;10.53;;;3.40;;
9176;SDS011;4623;54.310;10.112;2023-02-02T08:24:53;7.03;;;3.00;;
9176;SDS011;4623;54.310;10.112;2023-02-02T08:27:18;4.60;;;2.83;;
9176;SDS011;4623;54.310;10.112;2023-02-02T08:29:44;10.20;;;3.50;;
9176;SDS011;4623;54.310;10.112;2023-02-02T08:32:10;5.33;;;2.97;;
9176;SDS011;4623;54.310;10.112;2023-02-02T08:34:35;7.97;;;3.17;;
9176;SDS011;4623;54.310;10.112;2023-02-02T08:37:01;6.33;;;3.10;;
9176;SDS011;4623;54.310;10.112;2023-02-02T08:39:27;9.63;;;3.67;;
9176;SDS011;4623;54.310;10.112;2023-02-02T08:41:54;8.10;;;2.57;;
9176;SDS011;4623;54.310;10.112;2023-02-02T08:44:20;7.57;;;3.07;;
9176;SDS011;4623;54.310;10.112;2023-02-02T08:46:46;7.43;;;2.97;;
9176;SDS011;4623;54.310;10.112;2023-02-02T08:49:12;7.37;;;3.00;;
9176;SDS011;4623;54.310;10.112;2023-02-02T08:51:38;8.60;;;3.17;;
9176;SDS011;4623;54.310;10.112;2023-02-02T08:54:04;7.77;;;3.30;;
9176;SDS011;4623;54.310;10.112;2023-02-02T08:56:29;6.23;;;3.57;;
9176;SDS011;4623;54.310;10.112;2023-02-02T08:58:55;7.30;;;2.60;;
9176;SDS011;4623;54.310;10.112;2023-02-02T09:01:26;6.90;;;3.50;;
9176;SDS011;4623;54.310;10.112;2023-02-02T09:03:57;7.20;;;3.37;;
9176;SDS011;4623;54.310;10.112;2023-02-02T09:06:29;6.37;;;3.03;;
9176;SDS011;4623;54.310;10.112;2023-02-02T09:08:58;5.27;;;2.77;;
9176;SDS011;4623;54.310;10.112;2023-02-02T09:11:24;4.47;;;2.63;;
9176;SDS011;4623;54.310;10.112;2023-02-02T09:13:53;4.87;;;2.87;;
9176;SDS011;4623;54.310;10.112;2023-02-02T09:16:20;6.67;;;3.03;;
9176;SDS011;4623;54.310;10.112;2023-02-02T09:18:46;7.53;;;2.77;;
9176;SDS011;4623;54.310;10.112;2023-02-02T09:21:13;6.57;;;3.27;;
9176;SDS011;4623;54.310;10.112;2023-02-02T09:23:40;5.03;;;2.77;;
9176;SDS011;4623;54.310;10.112;2023-02-02T09:26:23;6.07;;;2.67;;
9176;SDS011;4623;54.310;10.112;2023-02-02T09:28:52;5.30;;;2.37;;
9176;SDS011;4623;54.310;10.112;2023-02-02T09:31:19;8.20;;;2.83;;
9176;SDS011;4623;54.310;10.112;2023-02-02T09:33:45;4.53;;;2.77;;
9176;SDS011;4623;54.310;10.112;2023-02-02T09:36:12;4.33;;;2.57;;
9176;SDS011;4623;54.310;10.112;2023-02-02T09:38:44;8.93;;;2.93;;
9176;SDS011;4623;54.310;10.112;2023-02-02T09:43:55;4.27;;;2.40;;
9176;SDS011;4623;54.310;10.112;2023-02-02T09:49:23;6.07;;;2.63;;
9176;SDS011;4623;54.310;10.112;2023-02-02T09:51:58;8.07;;;2.53;;
9176;SDS011;4623;54.310;10.112;2023-02-02T09:54:33;5.77;;;2.87;;
9176;SDS011;4623;54.310;10.112;2023-02-02T09:57:07;9.57;;;3.23;;
9176;SDS011;4623;54.310;10.112;2023-02-02T09:59:39;7.63;;;2.67;;
9176;SDS011;4623;54.310;10.112;2023-02-02T10:02:13;5.53;;;2.67;;
9176;SDS011;4623;54.310;10.112;2023-02-02T10:04:45;6.23;;;2.60;;
9176;SDS011;4623;54.310;10.112;2023-02-02T10:07:16;5.70;;;2.80;;
9176;SDS011;4623;54.310;10.112;2023-02-02T10:09:46;6.07;;;2.50;;
9176;SDS011;4623;54.310;10.112;2023-02-02T10:12:29;4.47;;;2.37;;
9176;SDS011;4623;54.310;10.112;2023-02-02T10:15:21;5.87;;;2.63;;
9176;SDS011;4623;54.310;10.112;2023-02-02T10:26:02;6.67;;;2.93;;
9176;SDS011;4623;54.310;10.112;2023-02-02T10:28:32;6.60;;;2.83;;
9176;SDS011;4623;54.310;10.112;2023-02-02T10:31:06;6.13;;;2.37;;
9176;SDS011;4623;54.310;10.112;2023-02-02T10:33:43;12.50;;;3.47;;
9176;SDS011;4623;54.310;10.112;2023-02-02T10:39:03;6.50;;;2.63;;
9176;SDS011;4623;54.310;10.112;2023-02-02T10:44:21;7.67;;;2.83;;
9176;SDS011;4623;54.310;10.112;2023-02-02T10:47:03;3.60;;;2.30;;
9176;SDS011;4623;54.310;10.112;2023-02-02T10:49:33;7.97;;;2.95;;
9176;SDS011;4623;54.310;10.112;2023-02-02T11:00:37;9.10;;;3.08;;
9176;SDS011;4623;54.310;10.112;2023-02-02T11:03:15;6.35;;;2.80;;
9176;SDS011;4623;54.310;10.112;2023-02-02T11:05:43;5.23;;;1.93;;
9176;SDS011;4623;54.310;10.112;2023-02-02T11:08:32;8.23;;;2.73;;
9176;SDS011;4623;54.310;10.112;2023-02-02T11:14:10;4.23;;;2.23;;
9176;SDS011;4623;54.310;10.112;2023-02-02T11:16:40;4.30;;;2.35;;
9176;SDS011;4623;54.310;10.112;2023-02-02T11:21:47;4.22;;;2.22;;
9176;SDS011;4623;54.310;10.112;2023-02-02T11:26:54;3.55;;;2.25;;
9176;SDS011;4623;54.310;10.112;2023-02-02T11:29:25;5.75;;;2.97;;
9176;SDS011;4623;54.310;10.112;2023-02-02T11:31:53;8.70;;;2.80;;
9176;SDS011;4623;54.310;10.112;2023-02-02T11:34:21;7.10;;;2.45;;
9176;SDS011;4623;54.310;10.112;2023-02-02T11:36:58;5.38;;;2.53;;
9176;SDS011;4623;54.310;10.112;2023-02-02T11:39:24;5.55;;;2.78;;
9176;SDS011;4623;54.310;10.112;2023-02-02T11:41:50;4.28;;;2.40;;
9176;SDS011;4623;54.310;10.112;2023-02-02T11:44:26;6.60;;;2.25;;
9176;SDS011;4623;54.310;10.112;2023-02-02T11:46:53;5.50;;;2.35;;
9176;SDS011;4623;54.310;10.112;2023-02-02T11:49:21;4.60;;;2.47;;
9176;SDS011;4623;54.310;10.112;2023-02-02T11:51:54;5.70;;;2.37;;
9176;SDS011;4623;54.310;10.112;2023-02-02T11:54:26;6.33;;;2.60;;
9176;SDS011;4623;54.310;10.112;2023-02-02T11:56:55;5.73;;;2.50;;
9176;SDS011;4623;54.310;10.112;2023-02-02T11:59:27;5.03;;;2.73;;
9176;SDS011;4623;54.310;10.112;2023-02-02T12:04:51;5.97;;;2.53;;
9176;SDS011;4623;54.310;10.112;2023-02-02T12:07:28;3.03;;;2.00;;
9176;SDS011;4623;54.310;10.112;2023-02-02T12:09:58;6.00;;;2.60;;
9176;SDS011;4623;54.310;10.112;2023-02-02T12:15:10;5.13;;;2.33;;
9176;SDS011;4623;54.310;10.112;2023-02-02T12:17:43;3.42;;;2.13;;
9176;SDS011;4623;54.310;10.112;2023-02-02T12:26:08;5.90;;;2.70;;
9176;SDS011;4623;54.310;10.112;2023-02-02T12:28:50;5.78;;;2.65;;
9176;SDS011;4623;54.310;10.112;2023-02-02T12:31:32;3.53;;;2.25;;
9176;SDS011;4623;54.310;10.112;2023-02-02T12:37:11;5.43;;;2.47;;
9176;SDS011;4623;54.310;10.112;2023-02-02T12:42:49;6.05;;;2.42;;
9176;SDS011;4623;54.310;10.112;2023-02-02T12:54:11;4.13;;;2.08;;
9176;SDS011;4623;54.310;10.112;2023-02-02T13:07:50;5.78;;;2.20;;
9176;SDS011;4623;54.310;10.112;2023-02-02T13:13:07;4.33;;;2.07;;
9176;SDS011;4623;54.310;10.112;2023-02-02T13:15:39;5.97;;;2.40;;
9176;SDS011;4623;54.310;10.112;2023-02-02T13:18:34;6.07;;;2.30;;
9176;SDS011;4623;54.310;10.112;2023-02-02T13:21:16;6.63;;;2.93;;
9176;SDS011;4623;54.310;10.112;2023-02-02T13:23:46;6.93;;;2.33;;
9176;SDS011;4623;54.310;10.112;2023-02-02T13:26:15;3.30;;;1.70;;
9176;SDS011;4623;54.310;10.112;2023-02-02T13:28:57;3.87;;;1.90;;
9176;SDS011;4623;54.310;10.112;2023-02-02T13:37:18;7.23;;;2.23;;
9176;SDS011;4623;54.310;10.112;2023-02-02T13:39:55;5.77;;;2.23;;
9176;SDS011;4623;54.310;10.112;2023-02-02T13:42:45;3.97;;;2.60;;
9176;SDS011;4623;54.310;10.112;2023-02-02T13:45:54;8.73;;;3.00;;
9176;SDS011;4623;54.310;10.112;2023-02-02T13:48:10;4.10;;;2.53;;
9176;SDS011;4623;54.310;10.112;2023-02-02T13:50:46;7.93;;;2.30;;
9176;SDS011;4623;54.310;10.112;2023-02-02T13:53:49;4.27;;;2.80;;
9176;SDS011;4623;54.310;10.112;2023-02-02T14:01:47;10.67;;;3.33;;
9176;SDS011;4623;54.310;10.112;2023-02-02T14:04:21;12.93;;;3.87;;
9176;SDS011;4623;54.310;10.112;2023-02-02T14:07:00;7.53;;;3.57;;
9176;SDS011;4623;54.310;10.112;2023-02-02T14:09:30;4.17;;;3.80;;
9176;SDS011;4623;54.310;10.112;2023-02-02T14:11:59;12.67;;;5.47;;
9176;SDS011;4623;54.310;10.112;2023-02-02T14:14:28;5.50;;;5.00;;
9176;SDS011;4623;54.310;10.112;2023-02-02T14:16:59;9.20;;;5.70;;
9176;SDS011;4623;54.310;10.112;2023-02-02T14:22:45;8.50;;;5.77;;
9176;SDS011;4623;54.310;10.112;2023-02-02T14:28:01;7.53;;;4.77;;
9176;SDS011;4623;54.310;10.112;2023-02-02T14:30:30;8.03;;;5.43;;
9176;SDS011;4623;54.310;10.112;2023-02-02T14:38:55;5.17;;;2.80;;
9176;SDS011;4623;54.310;10.112;2023-02-02T14:44:27;10.27;;;3.03;;
9176;SDS011;4623;54.310;10.112;2023-02-02T14:46:54;6.20;;;3.07;;
9176;SDS011;4623;54.310;10.112;2023-02-02T14:49:21;5.73;;;2.97;;
9176;SDS011;4623;54.310;10.112;2023-02-02T14:51:50;5.03;;;2.50;;
9176;SDS011;4623;54.310;10.112;2023-02-02T14:54:23;3.17;;;2.40;;
9176;SDS011;4623;54.310;10.112;2023-02-02T14:56:54;4.33;;;2.73;;
9176;SDS011;4623;54.310;10.112;2023-02-02T15:02:11;5.83;;;3.07;;
9176;SDS011;4623;54.310;10.112;2023-02-02T15:04:41;5.20;;;2.27;;
9176;SDS011;4623;54.310;10.112;2023-02-02T15:09:46;3.87;;;2.83;;
9176;SDS011;4623;54.310;10.112;2023-02-02T15:20:13;7.20;;;3.77;;
9176;SDS011;4623;54.310;10.112;2023-02-02T15:23:02;5.53;;;2.70;;
9176;SDS011;4623;54.310;10.112;2023-02-02T15:33:48;6.27;;;3.53;;
9176;SDS011;4623;54.310;10.112;2023-02-02T15:38:48;3.97;;;2.90;;
9176;SDS011;4623;54.310;10.112;2023-02-02T15:41:35;7.13;;;3.10;;
9176;SDS011;4623;54.310;10.112;2023-02-02T15:44:17;5.13;;;3.27;;
9176;SDS011;4623;54.310;10.112;2023-02-02T15:46:50;5.60;;;3.20;;
9176;SDS011;4623;54.310;10.112;2023-02-02T15:51:44;4.87;;;2.73;;
9176;SDS011;4623;54.310;10.112;2023-02-02T15:54:24;3.50;;;2.77;;
9176;SDS011;4623;54.310;10.112;2023-02-02T15:56:52;5.77;;;2.63;;
9176;SDS011;4623;54.310;10.112;2023-02-02T15:59:20;6.90;;;3.30;;
9176;SDS011;4623;54.310;10.112;2023-02-02T16:01:51;7.73;;;3.33;;
9176;SDS011;4623;54.310;10.112;2023-02-02T16:04:28;3.57;;;2.60;;
9176;SDS011;4623;54.310;10.112;2023-02-02T16:07:05;6.63;;;3.87;;
9176;SDS011;4623;54.310;10.112;2023-02-02T16:09:36;3.53;;;2.70;;
9176;SDS011;4623;54.310;10.112;2023-02-02T16:12:03;3.40;;;2.47;;
9176;SDS011;4623;54.310;10.112;2023-02-02T16:14:31;5.10;;;2.80;;
9176;SDS011;4623;54.310;10.112;2023-02-02T16:17:11;3.53;;;2.90;;
9176;SDS011;4623;54.310;10.112;2023-02-02T16:19:43;7.50;;;3.00;;
9176;SDS011;4623;54.310;10.112;2023-02-02T16:22:10;3.80;;;2.50;;
9176;SDS011;4623;54.310;10.112;2023-02-02T16:24:40;5.47;;;3.10;;
9176;SDS011;4623;54.310;10.112;2023-02-02T16:27:11;3.30;;;2.40;;
9176;SDS011;4623;54.310;10.112;2023-02-02T16:29:40;5.00;;;2.90;;
9176;SDS011;4623;54.310;10.112;2023-02-02T16:32:18;5.63;;;3.20;;
9176;SDS011;4623;54.310;10.112;2023-02-02T16:34:56;11.23;;;3.97;;
9176;SDS011;4623;54.310;10.112;2023-02-02T16:37:24;6.77;;;3.00;;
9176;SDS011;4623;54.310;10.112;2023-02-02T16:39:51;6.63;;;3.33;;
9176;SDS011;4623;54.310;10.112;2023-02-02T16:42:25;5.50;;;3.40;;
9176;SDS011;4623;54.310;10.112;2023-02-02T16:44:53;6.97;;;3.60;;
9176;SDS011;4623;54.310;10.112;2023-02-02T16:50:36;8.47;;;3.53;;
9176;SDS011;4623;54.310;10.112;2023-02-02T16:52:51;7.00;;;4.00;;
9176;SDS011;4623;54.310;10.112;2023-02-02T16:55:19;4.87;;;3.53;;
9176;SDS011;4623;54.310;10.112;2023-02-02T16:57:46;8.20;;;3.90;;
9176;SDS011;4623;54.310;10.112;2023-02-02T17:00:21;7.43;;;4.40;;
9176;SDS011;4623;54.310;10.112;2023-02-02T17:02:49;5.10;;;3.30;;
9176;SDS011;4623;54.310;10.112;2023-02-02T17:05:26;8.90;;;4.93;;
9176;SDS011;4623;54.310;10.112;2023-02-02T17:08:01;8.53;;;4.13;;
9176;SDS011;4623;54.310;10.112;2023-02-02T17:12:57;9.63;;;4.30;;
9176;SDS011;4623;54.310;10.112;2023-02-02T17:15:33;8.73;;;3.97;;
9176;SDS011;4623;54.310;10.112;2023-02-02T17:18:01;10.17;;;4.80;;
9176;SDS011;4623;54.310;10.112;2023-02-02T17:20:28;7.73;;;4.80;;
9176;SDS011;4623;54.310;10.112;2023-02-02T17:22:55;7.40;;;4.87;;
9176;SDS011;4623;54.310;10.112;2023-02-02T17:25:44;7.80;;;4.83;;
9176;SDS011;4623;54.310;10.112;2023-02-02T17:28:13;9.43;;;5.30;;
9176;SDS011;4623;54.310;10.112;2023-02-02T17:30:42;10.27;;;5.20;;
9176;SDS011;4623;54.310;10.112;2023-02-02T17:33:13;9.70;;;4.30;;
9176;SDS011;4623;54.310;10.112;2023-02-02T17:35:40;5.23;;;4.23;;
9176;SDS011;4623;54.310;10.112;2023-02-02T17:38:06;11.07;;;5.63;;
9176;SDS011;4623;54.310;10.112;2023-02-02T17:40:31;10.20;;;6.27;;
9176;SDS011;4623;54.310;10.112;2023-02-02T17:42:57;18.20;;;6.77;;
9176;SDS011;4623;54.310;10.112;2023-02-02T17:45:30;14.10;;;6.37;;
9176;SDS011;4623;54.310;10.112;2023-02-02T17:47:57;14.57;;;6.97;;
9176;SDS011;4623;54.310;10.112;2023-02-02T17:50:24;8.57;;;5.30;;
9176;SDS011;4623;54.310;10.112;2023-02-02T17:52:49;8.37;;;5.00;;